Weather at Fort Lauderdale Executive Airport

Public forecast

Using degrees Fahrenheit for public forecast. Weather courtesy of forecast.io.

Current aviation weather report (METAR) for Fort Lauderdale Executive Airport

2024/05/30 16:53 (retrieved 8 minutes ago)

KFXE 301653Z 08011G17KT 10SM CLR 34/23 A3003 RMK AO2 SLP170 T03390228

Aviation forecast (TAF) for Fort Lauderdale Executive Airport

2024/05/30 12:22 (retrieved 5 hours ago)

TAF KFXE 301120Z 3012/3112 VRB05KT P6SM SKC FM301700 08010KT P6SM SCT030 SCT250 FM302100 07011KT P6SM VCTS SCT025CB BKN050 FM310100 VRB05KT P6SM SCT030 SCT060